Time;durP1;ratioP1;P1;durP2;ratioP2;P2;SDS_P1;SDS_P2;PMS_P1;PMS_P2;Temp;Humidity;BMP_temperature;BMP_pressure;BME280_temperature;BME280_humidity;BME280_pressure;Samples;Min_cycle;Max_cycle;Signal;HPM_P1;HPM_P2
2022/09/12 00:01:34;;;;;;;;;2.00;2.00;;;;;;;;5060176;28;8872;-76
2022/09/12 00:04:00;;;;;;;;;1.00;1.00;;;;;;;;5060461;28;8816;-74
2022/09/12 00:06:27;;;;;;;;;3.00;2.00;;;;;;;;5059556;28;8817;-74
2022/09/12 00:08:54;;;;;;;;;3.00;3.00;;;;;;;;5060231;28;9895;-75
2022/09/12 00:11:19;;;;;;;;;2.33;1.67;;;;;;;;5059766;28;9019;-74
2022/09/12 00:13:45;;;;;;;;;2.33;2.33;;;;;;;;5059781;28;13144;-74
2022/09/12 00:16:15;;;;;;;;;4.33;2.00;;;;;;;;5058860;28;8812;-74
2022/09/12 00:18:40;;;;;;;;;2.33;2.33;;;;;;;;5059516;28;11703;-75
2022/09/12 00:21:06;;;;;;;;;2.00;1.33;;;;;;;;5059343;28;11383;-75
2022/09/12 00:23:32;;;;;;;;;1.00;1.00;;;;;;;;5041195;28;9776;-75
2022/09/12 00:25:57;;;;;;;;;2.00;2.00;;;;;;;;5058786;28;11335;-75
2022/09/12 00:28:22;;;;;;;;;2.33;2.00;;;;;;;;5058867;28;8864;-75
2022/09/12 00:30:48;;;;;;;;;2.00;2.00;;;;;;;;5059829;28;8830;-74
2022/09/12 00:33:14;;;;;;;;;3.00;3.00;;;;;;;;5059791;28;8816;-75
2022/09/12 00:35:44;;;;;;;;;1.67;1.00;;;;;;;;5058355;28;9586;-74
2022/09/12 00:38:09;;;;;;;;;2.67;2.00;;;;;;;;5059309;28;10576;-75
2022/09/12 00:40:35;;;;;;;;;2.00;2.00;;;;;;;;5059654;28;8989;-75
2022/09/12 00:43:00;;;;;;;;;3.00;3.00;;;;;;;;5059383;28;8813;-75
2022/09/12 00:45:27;;;;;;;;;2.00;1.67;;;;;;;;5059274;28;8810;-74
2022/09/12 00:47:53;;;;;;;;;2.00;1.00;;;;;;;;5059369;28;11556;-75
2022/09/12 00:50:19;;;;;;;;;3.00;3.00;;;;;;;;5059887;28;8988;-76
2022/09/12 00:52:49;;;;;;;;;2.00;2.00;;;;;;;;5058269;28;9161;-75
2022/09/12 00:55:23;;;;;;;;;3.67;2.67;;;;;;;;5059396;28;9014;-76
2022/09/12 00:57:52;;;;;;;;;2.67;2.00;;;;;;;;5058715;28;11579;-75
2022/09/12 01:00:19;;;;;;;;;2.67;2.00;;;;;;;;5059467;28;12855;-75
2022/09/12 01:02:55;;;;;;;;;1.00;1.00;;;;;;;;5059013;28;9016;-75
2022/09/12 01:05:21;;;;;;;;;3.00;1.33;;;;;;;;5058322;28;11967;-75
2022/09/12 01:07:48;;;;;;;;;2.67;2.00;;;;;;;;5058445;28;12694;-76
2022/09/12 01:10:15;;;;;;;;;3.33;2.00;;;;;;;;5057343;28;11733;-75
2022/09/12 01:12:41;;;;;;;;;2.00;2.00;;;;;;;;5058709;28;9852;-75
2022/09/12 01:15:07;;;;;;;;;2.00;1.00;;;;;;;;5058614;28;9250;-75
2022/09/12 01:17:41;;;;;;;;;2.00;2.00;;;;;;;;5059350;28;9252;-75
2022/09/12 01:20:25;;;;;;;;;3.00;2.00;;;;;;;;5058857;28;8916;-75
2022/09/12 01:22:50;;;;;;;;;1.67;1.67;;;;;;;;5058191;28;9065;-75
2022/09/12 01:25:36;;;;;;;;;2.00;2.00;;;;;;;;5057659;28;11329;-75
2022/09/12 01:28:02;;;;;;;;;3.33;2.33;;;;;;;;5058405;28;12444;-75
2022/09/12 01:30:30;;;;;;;;;3.67;3.00;;;;;;;;5058928;28;11455;-75
2022/09/12 01:33:15;;;;;;;;;3.00;2.00;;;;;;;;5058693;28;10404;-74
2022/09/12 01:35:40;;;;;;;;;2.00;2.00;;;;;;;;5057572;28;9558;-74
2022/09/12 01:38:10;;;;;;;;;2.67;2.67;;;;;;;;5058204;28;9127;-75
2022/09/12 01:40:48;;;;;;;;;1.67;1.67;;;;;;;;5058495;28;8880;-75
2022/09/12 01:43:47;;;;;;;;;2.00;2.00;;;;;;;;5058348;28;9105;-75
2022/09/12 01:46:16;;;;;;;;;3.00;2.00;;;;;;;;5013968;28;11419;-75
2022/09/12 01:48:47;;;;;;;;;2.00;2.00;;;;;;;;5040674;28;9299;-75
2022/09/12 01:51:20;;;;;;;;;2.00;1.33;;;;;;;;5058150;28;10142;-75
2022/09/12 01:53:49;;;;;;;;;2.00;2.00;;;;;;;;5058154;28;9404;-74
2022/09/12 01:56:21;;;;;;;;;1.33;1.33;;;;;;;;5057949;28;9056;-75
2022/09/12 01:58:52;;;;;;;;;2.00;1.67;;;;;;;;5057950;28;11699;-75
2022/09/12 02:01:21;;;;;;;;;5.00;3.00;;;;;;;;5056280;28;11642;-75
2022/09/12 02:03:49;;;;;;;;;3.33;2.00;;;;;;;;5058713;28;11395;-75
2022/09/12 02:06:22;;;;;;;;;2.00;2.00;;;;;;;;5056179;28;10550;-75
2022/09/12 02:08:52;;;;;;;;;2.00;2.00;;;;;;;;5057995;28;9359;-75
2022/09/12 02:11:17;;;;;;;;;2.00;1.33;;;;;;;;5058649;28;9171;-75
2022/09/12 02:13:46;;;;;;;;;3.00;1.67;;;;;;;;5057937;28;9382;-75
2022/09/12 02:16:14;;;;;;;;;2.00;2.00;;;;;;;;5058621;28;11373;-74
2022/09/12 02:18:43;;;;;;;;;1.67;1.67;;;;;;;;5056805;28;11467;-75
2022/09/12 02:21:08;;;;;;;;;2.00;2.00;;;;;;;;5058151;28;11426;-75
2022/09/12 02:23:37;;;;;;;;;3.75;3.00;;;;;;;;5057818;28;11304;-75
2022/09/12 02:26:04;;;;;;;;;2.00;2.00;;;;;;;;5057904;28;10372;-76
2022/09/12 02:28:32;;;;;;;;;2.00;2.00;;;;;;;;5057298;28;10367;-76
2022/09/12 02:31:06;;;;;;;;;1.00;1.00;;;;;;;;5058454;28;9371;-75
2022/09/12 02:33:44;;;;;;;;;2.00;2.00;;;;;;;;5058198;28;9393;-75
2022/09/12 02:36:20;;;;;;;;;2.00;2.00;;;;;;;;5057376;28;9601;-74
2022/09/12 02:38:47;;;;;;;;;5.25;2.50;;;;;;;;5057401;28;9746;-75
2022/09/12 02:41:14;;;;;;;;;2.00;2.00;;;;;;;;5057948;28;12552;-75
2022/09/12 02:43:39;;;;;;;;;3.00;3.00;;;;;;;;5057144;28;11587;-75
2022/09/12 02:46:18;;;;;;;;;2.00;2.00;;;;;;;;5057254;28;10219;-75
2022/09/12 02:48:43;;;;;;;;;3.00;3.00;;;;;;;;5057417;28;9673;-75
2022/09/12 02:51:10;;;;;;;;;3.25;2.25;;;;;;;;5060034;28;9404;-74
2022/09/12 02:53:36;;;;;;;;;2.25;2.00;;;;;;;;5060687;28;10580;-74
2022/09/12 02:56:03;;;;;;;;;2.75;2.75;;;;;;;;5042761;28;12901;-75
2022/09/12 02:58:29;;;;;;;;;3.00;3.00;;;;;;;;5060722;28;8793;-75
2022/09/12 03:00:57;;;;;;;;;1.50;1.50;;;;;;;;5060303;28;11379;-75
2022/09/12 03:03:23;;;;;;;;;3.25;2.00;;;;;;;;5060327;28;12775;-74
2022/09/12 03:05:56;;;;;;;;;2.00;2.00;;;;;;;;5060716;28;11331;-75
2022/09/12 03:08:33;;;;;;;;;2.00;2.00;;;;;;;;5060562;28;8848;-75
2022/09/12 03:11:05;;;;;;;;;2.00;2.00;;;;;;;;5060946;28;9815;-75
2022/09/12 03:13:39;;;;;;;;;2.00;2.00;;;;;;;;5059945;28;9741;-74
2022/09/12 03:16:10;;;;;;;;;5.00;2.00;;;;;;;;5060615;28;9728;-74
2022/09/12 03:18:35;;;;;;;;;3.00;3.00;;;;;;;;5061185;28;9833;-74
2022/09/12 03:21:19;;;;;;;;;3.50;3.00;;;;;;;;5060983;28;9748;-76
2022/09/12 03:23:56;;;;;;;;;1.25;1.25;;;;;;;;5060702;28;8829;-76
2022/09/12 03:26:27;;;;;;;;;2.00;2.00;;;;;;;;5042412;28;11581;-76
2022/09/12 03:28:54;;;;;;;;;2.50;2.50;;;;;;;;5058843;28;11938;-76
2022/09/12 03:31:19;;;;;;;;;3.00;2.25;;;;;;;;5059774;28;9859;-76
2022/09/12 03:33:44;;;;;;;;;2.00;2.00;;;;;;;;5060682;28;11680;-74
2022/09/12 03:36:19;;;;;;;;;3.50;2.00;;;;;;;;5061153;28;11835;-76
2022/09/12 03:38:44;;;;;;;;;2.50;1.50;;;;;;;;5060233;28;8894;-75
2022/09/12 03:41:09;;;;;;;;;1.00;1.00;;;;;;;;5060730;28;11364;-77
2022/09/12 03:43:35;;;;;;;;;2.75;1.00;;;;;;;;5042081;28;11339;-76
2022/09/12 03:46:00;;;;;;;;;3.25;3.25;;;;;;;;5041768;28;9149;-76
2022/09/12 03:48:25;;;;;;;;;2.50;2.00;;;;;;;;5058951;28;11323;-76
2022/09/12 03:50:51;;;;;;;;;2.00;2.00;;;;;;;;5059964;28;12929;-77
2022/09/12 03:53:16;;;;;;;;;4.00;2.50;;;;;;;;5059899;28;8793;-77
2022/09/12 03:55:41;;;;;;;;;2.25;1.75;;;;;;;;5059836;28;12481;-75
2022/09/12 03:58:06;;;;;;;;;2.00;2.00;;;;;;;;5059079;28;11338;-75
2022/09/12 04:00:32;;;;;;;;;2.00;2.00;;;;;;;;5059199;28;10508;-74
2022/09/12 04:02:57;;;;;;;;;2.50;2.50;;;;;;;;5059490;28;8871;-80
2022/09/12 04:05:23;;;;;;;;;3.50;2.00;;;;;;;;5057665;28;8962;-83
2022/09/12 04:07:49;;;;;;;;;2.25;2.25;;;;;;;;5040841;28;13336;-79
2022/09/12 04:10:14;;;;;;;;;3.00;3.00;;;;;;;;5059972;28;11656;-81
2022/09/12 04:12:39;;;;;;;;;2.50;1.25;;;;;;;;5059744;28;11626;-84
2022/09/12 04:15:06;;;;;;;;;3.25;3.00;;;;;;;;5061307;28;11287;-84
2022/09/12 04:17:32;;;;;;;;;2.25;2.00;;;;;;;;5059828;28;11909;-85
2022/09/12 04:19:57;;;;;;;;;2.00;2.00;;;;;;;;5060004;28;9948;-85
2022/09/12 04:22:23;;;;;;;;;2.00;2.00;;;;;;;;5059932;28;9969;-85
2022/09/12 04:24:48;;;;;;;;;2.00;2.00;;;;;;;;5059100;28;8845;-78
2022/09/12 04:27:13;;;;;;;;;1.25;1.25;;;;;;;;5059769;28;8797;-82
2022/09/12 04:29:38;;;;;;;;;2.00;2.00;;;;;;;;5059541;28;11309;-80
2022/09/12 04:32:04;;;;;;;;;4.00;2.00;;;;;;;;5060721;28;11295;-82
2022/09/12 04:34:30;;;;;;;;;5.00;2.00;;;;;;;;5059939;28;8840;-78
2022/09/12 04:36:56;;;;;;;;;2.25;2.25;;;;;;;;5060572;28;8805;-78
2022/09/12 04:39:21;;;;;;;;;2.00;2.00;;;;;;;;5059677;28;11568;-78
2022/09/12 04:41:47;;;;;;;;;3.75;2.00;;;;;;;;5059704;28;9968;-78
2022/09/12 04:44:13;;;;;;;;;5.00;4.00;;;;;;;;5058893;28;8832;-80
2022/09/12 04:46:41;;;;;;;;;3.00;3.00;;;;;;;;5060038;28;11506;-79
2022/09/12 04:49:07;;;;;;;;;4.75;2.25;;;;;;;;5059113;28;10111;-79
2022/09/12 04:51:33;;;;;;;;;3.00;3.00;;;;;;;;5058799;28;12065;-79
2022/09/12 04:54:00;;;;;;;;;4.75;3.00;;;;;;;;5059800;28;11392;-79
2022/09/12 04:56:26;;;;;;;;;3.00;2.50;;;;;;;;5058911;28;10017;-79
2022/09/12 04:58:52;;;;;;;;;3.50;3.00;;;;;;;;5058226;28;11600;-80
2022/09/12 05:01:18;;;;;;;;;2.50;2.50;;;;;;;;5058728;28;11599;-80
2022/09/12 05:03:44;;;;;;;;;3.00;3.00;;;;;;;;5059845;28;11807;-80
2022/09/12 05:06:13;;;;;;;;;4.00;2.75;;;;;;;;5059850;28;11558;-81
2022/09/12 05:08:39;;;;;;;;;3.00;3.00;;;;;;;;5060534;28;12659;-82
2022/09/12 05:11:11;;;;;;;;;3.00;2.00;;;;;;;;5060741;28;11772;-78
2022/09/12 05:13:37;;;;;;;;;6.75;4.00;;;;;;;;5059952;28;8773;-78
2022/09/12 05:16:03;;;;;;;;;1.50;1.00;;;;;;;;5040965;28;10874;-80
2022/09/12 05:18:33;;;;;;;;;5.50;2.00;;;;;;;;5060953;28;10689;-79
2022/09/12 05:20:59;;;;;;;;;3.00;3.00;;;;;;;;5060515;28;11446;-79
2022/09/12 05:23:25;;;;;;;;;2.00;2.00;;;;;;;;5060051;28;10301;-80
2022/09/12 05:25:51;;;;;;;;;2.50;2.50;;;;;;;;5059974;28;8932;-78
2022/09/12 05:28:16;;;;;;;;;4.00;4.00;;;;;;;;5046681;28;8831;-76
2022/09/12 05:30:42;;;;;;;;;4.50;4.00;;;;;;;;5058851;28;12467;-78
2022/09/12 05:33:07;;;;;;;;;3.00;3.00;;;;;;;;5041220;28;8844;-78
2022/09/12 05:35:32;;;;;;;;;8.00;7.00;;;;;;;;5059039;28;10271;-78
2022/09/12 05:37:57;;;;;;;;;6.00;6.00;;;;;;;;5060317;28;8789;-78
2022/09/12 05:40:23;;;;;;;;;5.00;4.75;;;;;;;;5060271;28;9555;-78
2022/09/12 05:42:48;;;;;;;;;7.00;6.00;;;;;;;;5059643;28;11756;-82
2022/09/12 05:45:13;;;;;;;;;3.00;3.00;;;;;;;;5059994;28;11302;-78
2022/09/12 05:47:42;;;;;;;;;4.50;4.50;;;;;;;;5059811;28;8829;-83
2022/09/12 05:50:09;;;;;;;;;4.25;3.00;;;;;;;;5060084;28;11630;-83
2022/09/12 05:52:35;;;;;;;;;4.00;4.00;;;;;;;;5060389;28;10346;-86
2022/09/12 05:55:00;;;;;;;;;6.75;4.50;;;;;;;;5058513;28;10083;-89
2022/09/12 05:57:25;;;;;;;;;2.25;2.25;;;;;;;;5059637;28;11303;-78
2022/09/12 05:59:51;;;;;;;;;4.00;4.00;;;;;;;;5058533;28;11299;-71
2022/09/12 06:02:17;;;;;;;;;3.50;3.00;;;;;;;;5060021;28;11321;-76
2022/09/12 06:04:42;;;;;;;;;4.25;4.25;;;;;;;;5059769;28;10285;-73
2022/09/12 06:07:08;;;;;;;;;6.75;5.75;;;;;;;;5058968;28;11596;-73
2022/09/12 06:09:33;;;;;;;;;5.00;4.25;;;;;;;;5058516;28;10279;-69
2022/09/12 06:11:59;;;;;;;;;4.00;4.00;;;;;;;;5058485;28;11311;-70
2022/09/12 06:14:25;;;;;;;;;5.00;5.00;;;;;;;;5056856;28;12868;-71
2022/09/12 06:16:50;;;;;;;;;6.00;5.00;;;;;;;;5058049;28;10154;-69
2022/09/12 06:19:17;;;;;;;;;4.75;4.00;;;;;;;;5057844;28;9552;-69
2022/09/12 06:21:42;;;;;;;;;5.25;5.25;;;;;;;;5058301;28;10507;-69
2022/09/12 06:24:08;;;;;;;;;8.75;6.00;;;;;;;;5058616;28;11300;-71
2022/09/12 06:26:33;;;;;;;;;6.50;5.00;;;;;;;;5058825;28;12465;-71
2022/09/12 06:28:59;;;;;;;;;9.75;8.50;;;;;;;;5056554;28;10264;-70
2022/09/12 06:31:29;;;;;;;;;5.25;5.25;;;;;;;;5058196;28;11612;-70
2022/09/12 06:33:56;;;;;;;;;5.00;5.00;;;;;;;;5058218;28;11526;-69
2022/09/12 06:36:22;;;;;;;;;4.25;4.00;;;;;;;;5057128;28;10921;-69
2022/09/12 06:38:53;;;;;;;;;10.00;8.00;;;;;;;;5058089;28;10877;-70
2022/09/12 06:41:18;;;;;;;;;6.75;6.00;;;;;;;;5057245;28;21623;-72
2022/09/12 06:43:43;;;;;;;;;10.75;10.75;;;;;;;;5057718;28;21662;-71
2022/09/12 06:46:09;;;;;;;;;8.00;6.25;;;;;;;;5056659;28;22337;-70
2022/09/12 06:48:34;;;;;;;;;8.00;8.00;;;;;;;;5055839;28;22507;-70
2022/09/12 06:51:06;;;;;;;;;6.75;6.75;;;;;;;;5056601;28;8895;-70
2022/09/12 06:53:35;;;;;;;;;8.00;7.00;;;;;;;;5056230;28;12746;-70
2022/09/12 06:56:12;;;;;;;;;21.25;19.50;;;;;;;;5056132;28;11642;-70
2022/09/12 06:58:37;;;;;;;;;30.25;26.75;;;;;;;;5056549;28;22947;-70
2022/09/12 07:01:08;;;;;;;;;9.50;9.50;;;;;;;;5057616;28;13379;-70
2022/09/12 07:03:34;;;;;;;;;9.00;7.50;;;;;;;;5055871;28;23979;-71
2022/09/12 07:06:03;;;;;;;;;8.75;6.75;;;;;;;;5057508;28;10006;-70
2022/09/12 07:08:30;;;;;;;;;8.00;8.00;;;;;;;;5057336;28;11565;-70
2022/09/12 07:10:57;;;;;;;;;8.00;8.00;;;;;;;;5038974;28;11070;-70
2022/09/12 07:13:23;;;;;;;;;7.00;7.00;;;;;;;;5057653;28;10015;-70
2022/09/12 07:15:48;;;;;;;;;6.75;6.75;;;;;;;;5057778;28;9820;-70
2022/09/12 07:18:14;;;;;;;;;8.25;7.75;;;;;;;;5057496;28;11309;-70
2022/09/12 07:20:39;;;;;;;;;6.00;6.00;;;;;;;;5056836;28;9942;-70
2022/09/12 07:23:05;;;;;;;;;14.00;12.00;;;;;;;;5056364;28;11461;-70
2022/09/12 07:25:30;;;;;;;;;14.25;12.25;;;;;;;;5056647;28;22323;-70
2022/09/12 07:27:55;;;;;;;;;13.50;12.50;;;;;;;;5056985;28;8829;-70
2022/09/12 07:30:21;;;;;;;;;9.00;9.00;;;;;;;;5056792;28;11372;-69
2022/09/12 07:32:50;;;;;;;;;11.25;9.00;;;;;;;;5038952;28;24653;-69
2022/09/12 07:35:16;;;;;;;;;7.25;7.25;;;;;;;;5056785;28;16376;-69
2022/09/12 07:37:41;;;;;;;;;9.00;9.00;;;;;;;;5059242;28;22649;-70
2022/09/12 07:40:07;;;;;;;;;8.25;7.25;;;;;;;;5059455;28;11865;-70
2022/09/12 07:42:32;;;;;;;;;7.00;7.00;;;;;;;;5060886;28;12647;-70
2022/09/12 07:44:57;;;;;;;;;7.00;6.00;;;;;;;;5060278;28;11751;-70
2022/09/12 07:47:23;;;;;;;;;8.00;6.00;;;;;;;;5061087;28;8804;-70
2022/09/12 07:49:48;;;;;;;;;10.50;9.00;;;;;;;;5060267;28;8808;-70
2022/09/12 07:52:13;;;;;;;;;9.50;6.00;;;;;;;;5060004;28;21585;-70
2022/09/12 07:54:39;;;;;;;;;8.25;6.25;;;;;;;;5059934;28;22116;-70
2022/09/12 07:57:04;;;;;;;;;7.25;7.00;;;;;;;;5059881;28;11288;-70
2022/09/12 07:59:29;;;;;;;;;9.25;9.25;;;;;;;;5059877;28;11882;-70
2022/09/12 08:01:54;;;;;;;;;6.00;5.00;;;;;;;;5060286;28;11543;-70
2022/09/12 08:04:20;;;;;;;;;6.00;6.00;;;;;;;;5060438;28;11318;-70
2022/09/12 08:06:45;;;;;;;;;7.50;7.50;;;;;;;;5059837;28;8801;-70
2022/09/12 08:09:11;;;;;;;;;11.00;7.00;;;;;;;;5060049;28;12752;-70
2022/09/12 08:11:37;;;;;;;;;14.50;13.25;;;;;;;;5058730;28;21646;-70
2022/09/12 08:14:04;;;;;;;;;8.25;7.00;;;;;;;;5058778;28;22240;-69
2022/09/12 08:16:30;;;;;;;;;8.25;6.00;;;;;;;;5059193;28;22265;-68
2022/09/12 08:18:55;;;;;;;;;8.33;8.00;;;;;;;;5041697;28;9515;-70
2022/09/12 08:21:25;;;;;;;;;7.75;6.00;;;;;;;;5059556;28;9063;-71
2022/09/12 08:23:52;;;;;;;;;7.00;7.00;;;;;;;;5059376;28;9851;-70
2022/09/12 08:26:18;;;;;;;;;6.00;6.00;;;;;;;;5041749;28;10912;-70
2022/09/12 08:28:45;;;;;;;;;4.00;4.00;;;;;;;;5040454;28;10985;-71
2022/09/12 08:31:11;;;;;;;;;6.25;6.25;;;;;;;;5059142;28;9160;-70
2022/09/12 08:33:37;;;;;;;;;4.75;4.75;;;;;;;;5059271;28;11432;-71
2022/09/12 08:36:04;;;;;;;;;6.33;6.33;;;;;;;;5041856;28;13623;-70
2022/09/12 08:38:29;;;;;;;;;5.25;5.25;;;;;;;;5058926;28;10449;-75
2022/09/12 08:40:59;;;;;;;;;7.00;6.00;;;;;;;;5059898;28;8945;-74
2022/09/12 08:43:30;;;;;;;;;6.25;5.25;;;;;;;;5059846;28;11874;-74
2022/09/12 08:46:17;;;;;;;;;3.50;3.00;;;;;;;;5059392;28;11456;-75
2022/09/12 08:48:44;;;;;;;;;5.00;5.00;;;;;;;;5058422;28;11702;-75
2022/09/12 08:51:11;;;;;;;;;7.00;5.50;;;;;;;;5059678;28;10599;-75
2022/09/12 08:53:37;;;;;;;;;5.50;5.50;;;;;;;;5059229;28;11585;-76
2022/09/12 08:56:04;;;;;;;;;7.00;6.00;;;;;;;;5059571;28;8997;-75
2022/09/12 08:58:34;;;;;;;;;4.00;4.00;;;;;;;;5059245;28;11762;-75
2022/09/12 09:01:00;;;;;;;;;5.00;5.00;;;;;;;;5059533;28;9314;-75
2022/09/12 09:03:49;;;;;;;;;7.50;6.50;;;;;;;;5060201;28;8806;-75
2022/09/12 09:06:14;;;;;;;;;8.20;6.80;;;;;;;;5020936;28;11491;-75
2022/09/12 09:08:57;;;;;;;;;4.00;4.00;;;;;;;;5041718;28;11967;-75
2022/09/12 09:11:46;;;;;;;;;5.00;5.00;;;;;;;;5060189;28;11460;-74
2022/09/12 09:16:59;;;;;;;;;6.00;6.00;;;;;;;;5059232;28;12263;-75
2022/09/12 09:19:33;;;;;;;;;6.00;4.50;;;;;;;;5059676;28;11292;-76
2022/09/12 09:22:07;;;;;;;;;4.80;4.80;;;;;;;;5058827;28;10614;-75
2022/09/12 09:24:35;;;;;;;;;4.60;4.60;;;;;;;;5059496;28;11445;-75
2022/09/12 09:27:04;;;;;;;;;3.20;3.20;;;;;;;;5059359;28;8861;-77
2022/09/12 09:29:35;;;;;;;;;5.40;5.40;;;;;;;;5040924;28;14688;-79
2022/09/12 09:32:03;;;;;;;;;4.00;4.00;;;;;;;;5059252;28;11652;-77
2022/09/12 09:34:30;;;;;;;;;5.40;4.40;;;;;;;;5058900;28;12837;-78
2022/09/12 09:37:12;;;;;;;;;2.60;2.60;;;;;;;;5039379;28;11835;-76
2022/09/12 09:39:44;;;;;;;;;4.40;4.00;;;;;;;;5058240;28;12383;-76
2022/09/12 09:42:12;;;;;;;;;5.40;5.40;;;;;;;;5058125;28;11627;-76
2022/09/12 09:44:38;;;;;;;;;5.00;5.00;;;;;;;;5059211;28;12968;-75
2022/09/12 09:47:04;;;;;;;;;5.25;5.25;;;;;;;;5041232;28;9392;-76
2022/09/12 09:49:32;;;;;;;;;7.20;4.80;;;;;;;;5058800;28;9499;-81
2022/09/12 09:51:59;;;;;;;;;4.60;4.60;;;;;;;;5059968;28;10805;-80
2022/09/12 09:54:48;;;;;;;;;4.60;4.60;;;;;;;;5058721;28;11438;-75
2022/09/12 09:57:32;;;;;;;;;5.80;5.80;;;;;;;;5054736;28;8801;-75
2022/09/12 09:59:57;;;;;;;;;6.80;6.00;;;;;;;;5054122;28;11387;-75
2022/09/12 10:02:22;;;;;;;;;4.25;4.25;;;;;;;;5056880;28;12691;-74
2022/09/12 10:04:56;;;;;;;;;3.75;3.75;;;;;;;;5056809;28;12716;-75
2022/09/12 10:07:22;;;;;;;;;5.00;3.80;;;;;;;;5055529;28;10413;-75
2022/09/12 10:10:05;;;;;;;;;5.00;4.00;;;;;;;;5036167;28;9124;-74
2022/09/12 10:12:30;;;;;;;;;5.20;5.20;;;;;;;;5028044;28;11015;-77
2022/09/12 10:14:56;;;;;;;;;3.00;3.00;;;;;;;;5055406;28;10258;-75
2022/09/12 10:17:27;;;;;;;;;4.00;4.00;;;;;;;;5054739;28;11575;-75
2022/09/12 10:19:53;;;;;;;;;4.80;4.80;;;;;;;;5054401;28;8820;-74
2022/09/12 10:22:20;;;;;;;;;3.25;3.00;;;;;;;;5056046;28;8976;-74
2022/09/12 10:24:48;;;;;;;;;3.80;3.80;;;;;;;;5055507;28;11741;-76
2022/09/12 10:27:15;;;;;;;;;4.00;4.00;;;;;;;;5055338;28;8801;-74
2022/09/12 10:29:44;;;;;;;;;3.80;3.60;;;;;;;;5054279;28;11644;-73
2022/09/12 10:32:11;;;;;;;;;5.00;5.00;;;;;;;;5053248;28;12539;-74
2022/09/12 10:34:41;;;;;;;;;4.60;4.60;;;;;;;;5053325;28;11375;-75
2022/09/12 10:37:07;;;;;;;;;3.80;3.40;;;;;;;;5055403;28;11429;-74
2022/09/12 10:39:34;;;;;;;;;5.00;5.00;;;;;;;;5055660;28;11749;-74
2022/09/12 10:42:00;;;;;;;;;5.00;3.40;;;;;;;;5053648;28;12059;-74
2022/09/12 10:44:28;;;;;;;;;3.50;3.50;;;;;;;;5055343;28;9139;-74
2022/09/12 10:46:54;;;;;;;;;4.00;4.00;;;;;;;;5055460;28;11896;-74
2022/09/12 10:49:23;;;;;;;;;4.00;4.00;;;;;;;;5055278;28;11545;-75
2022/09/12 10:51:48;;;;;;;;;4.00;4.00;;;;;;;;5054354;28;8835;-74
2022/09/12 10:54:15;;;;;;;;;3.00;3.00;;;;;;;;5036159;28;8973;-73
2022/09/12 10:56:43;;;;;;;;;3.00;3.00;;;;;;;;5053845;28;9278;-73
2022/09/12 10:59:11;;;;;;;;;3.00;3.00;;;;;;;;5055312;28;8833;-73
2022/09/12 11:01:42;;;;;;;;;7.50;7.50;;;;;;;;5053200;28;8905;-73
2022/09/12 11:04:14;;;;;;;;;6.00;6.00;;;;;;;;5056106;28;11869;-74
2022/09/12 11:06:40;;;;;;;;;5.00;5.00;;;;;;;;5054369;28;11726;-75
2022/09/12 11:09:17;;;;;;;;;3.25;3.25;;;;;;;;5055915;28;8923;-75
2022/09/12 11:11:55;;;;;;;;;3.60;3.60;;;;;;;;5056454;28;11459;-75
2022/09/12 11:14:38;;;;;;;;;2.00;2.00;;;;;;;;5060080;28;8861;-75
2022/09/12 11:17:19;;;;;;;;;3.60;3.20;;;;;;;;5059965;28;11417;-75
2022/09/12 11:19:45;;;;;;;;;4.40;4.00;;;;;;;;5058490;28;11616;-75
2022/09/12 11:22:11;;;;;;;;;3.00;3.00;;;;;;;;5059370;28;11407;-76
2022/09/12 11:24:54;;;;;;;;;5.00;4.00;;;;;;;;5059185;28;10735;-75
2022/09/12 11:27:19;;;;;;;;;6.80;3.80;;;;;;;;5059540;28;8808;-75
2022/09/12 11:29:57;;;;;;;;;4.33;4.00;;;;;;;;5057985;28;11276;-75
2022/09/12 11:32:41;;;;;;;;;4.00;4.00;;;;;;;;5059519;28;12636;-77
2022/09/12 11:35:06;;;;;;;;;3.20;3.20;;;;;;;;5059843;28;9538;-76
2022/09/12 11:37:59;;;;;;;;;3.00;3.00;;;;;;;;5054614;28;11539;-73
2022/09/12 11:40:43;;;;;;;;;3.50;3.00;;;;;;;;5060562;28;8801;-74
2022/09/12 11:43:17;;;;;;;;;3.75;3.00;;;;;;;;5060332;28;8801;-75
2022/09/12 11:45:44;;;;;;;;;3.00;2.00;;;;;;;;5060514;28;8816;-74
2022/09/12 11:48:18;;;;;;;;;3.25;3.00;;;;;;;;5059533;28;9582;-76
2022/09/12 11:50:44;;;;;;;;;4.25;4.25;;;;;;;;5058111;28;10065;-77
2022/09/12 11:53:22;;;;;;;;;2.67;2.67;;;;;;;;5060026;28;11457;-76
2022/09/12 11:56:06;;;;;;;;;4.00;3.00;;;;;;;;5059229;28;11384;-74
2022/09/12 11:58:31;;;;;;;;;4.00;4.00;;;;;;;;5059425;28;11373;-74
2022/09/12 12:01:10;;;;;;;;;6.00;5.00;;;;;;;;5059988;28;8819;-74
2022/09/12 12:03:40;;;;;;;;;4.00;4.00;;;;;;;;5056429;28;10262;-74
2022/09/12 12:06:10;;;;;;;;;5.00;5.00;;;;;;;;5058453;28;10285;-74
2022/09/12 12:08:40;;;;;;;;;3.25;3.25;;;;;;;;5058106;28;9145;-74
2022/09/12 12:11:06;;;;;;;;;3.00;3.00;;;;;;;;5058986;28;11631;-74
2022/09/12 12:13:32;;;;;;;;;2.50;1.75;;;;;;;;5037191;28;11236;-74
2022/09/12 12:16:18;;;;;;;;;7.00;6.00;;;;;;;;5057534;28;11846;-73
2022/09/12 12:18:43;;;;;;;;;4.75;4.75;;;;;;;;5038670;28;15187;-73
2022/09/12 12:21:20;;;;;;;;;2.33;2.33;;;;;;;;5058983;28;11298;-72
2022/09/12 12:24:00;;;;;;;;;2.00;2.00;;;;;;;;5058807;28;10603;-74
2022/09/12 12:26:44;;;;;;;;;3.25;3.25;;;;;;;;5058757;28;8825;-74
2022/09/12 12:29:09;;;;;;;;;3.00;2.00;;;;;;;;5056596;28;11921;-74
2022/09/12 12:31:55;;;;;;;;;2.00;2.00;;;;;;;;5059268;28;10706;-74
2022/09/12 12:34:31;;;;;;;;;4.00;3.00;;;;;;;;5041830;28;8875;-74
2022/09/12 12:36:58;;;;;;;;;1.50;1.50;;;;;;;;5058976;28;8802;-74
2022/09/12 12:39:32;;;;;;;;;3.50;2.00;;;;;;;;5058138;28;11858;-74
2022/09/12 12:42:00;;;;;;;;;8.50;7.00;;;;;;;;5059076;28;11387;-73
2022/09/12 12:44:44;;;;;;;;;3.50;2.75;;;;;;;;5059661;28;8785;-73
2022/09/12 12:47:15;;;;;;;;;5.00;3.75;;;;;;;;5059441;28;11932;-80
2022/09/12 12:49:41;;;;;;;;;5.00;5.00;;;;;;;;5039475;28;12866;-76
2022/09/12 12:52:15;;;;;;;;;4.67;4.67;;;;;;;;5058823;28;8821;-76
2022/09/12 12:54:40;;;;;;;;;4.25;4.25;;;;;;;;5057183;28;12488;-76
2022/09/12 12:57:12;;;;;;;;;2.33;2.33;;;;;;;;5059144;28;8843;-76
2022/09/12 12:59:44;;;;;;;;;6.00;5.00;;;;;;;;5058371;28;8971;-75
2022/09/12 13:02:40;;;;;;;;;4.50;4.50;;;;;;;;5058937;28;12038;-75
2022/09/12 13:05:15;;;;;;;;;1.25;1.25;;;;;;;;4974842;28;11429;-76
2022/09/12 13:07:42;;;;;;;;;5.25;5.25;;;;;;;;4975525;28;11673;-78
2022/09/12 13:10:22;;;;;;;;;2.00;2.00;;;;;;;;4975357;28;10888;-76
2022/09/12 13:12:47;;;;;;;;;6.50;4.25;;;;;;;;4975065;28;11443;-75
2022/09/12 13:15:32;;;;;;;;;3.00;3.00;;;;;;;;5001675;28;11564;-75
2022/09/12 13:18:00;;;;;;;;;4.00;4.00;;;;;;;;5058733;28;12168;-76
2022/09/12 13:20:29;;;;;;;;;1.00;1.00;;;;;;;;5059443;28;10231;-75
2022/09/12 13:22:55;;;;;;;;;3.00;3.00;;;;;;;;5059070;28;8890;-73
2022/09/12 13:25:31;;;;;;;;;2.25;2.25;;;;;;;;5058719;28;9026;-75
2022/09/12 13:28:12;;;;;;;;;6.50;4.25;;;;;;;;5059304;28;11379;-75
2022/09/12 13:30:43;;;;;;;;;1.50;1.50;;;;;;;;5041092;28;12622;-74
2022/09/12 13:33:11;;;;;;;;;1.75;1.75;;;;;;;;5058436;28;11359;-74
2022/09/12 13:35:56;;;;;;;;;2.00;2.00;;;;;;;;5037078;28;9204;-73
2022/09/12 13:38:27;;;;;;;;;4.25;4.25;;;;;;;;5058442;28;11438;-73
2022/09/12 13:40:55;;;;;;;;;7.50;7.25;;;;;;;;5057844;28;11827;-75
2022/09/12 13:43:28;;;;;;;;;2.00;2.00;;;;;;;;5057487;28;10516;-73
2022/09/12 13:45:53;;;;;;;;;4.75;4.75;;;;;;;;5057772;28;11536;-74
2022/09/12 13:48:21;;;;;;;;;1.67;1.67;;;;;;;;5057465;28;11640;-73
2022/09/12 13:50:51;;;;;;;;;4.00;3.00;;;;;;;;5055325;28;11390;-74
2022/09/12 13:53:19;;;;;;;;;1.25;1.25;;;;;;;;5058037;28;12098;-73
2022/09/12 13:55:46;;;;;;;;;2.50;2.50;;;;;;;;5057314;28;11393;-73
2022/09/12 13:58:22;;;;;;;;;0.00;0.00;;;;;;;;5058034;28;11872;-73
2022/09/12 14:00:59;;;;;;;;;7.00;5.00;;;;;;;;5055860;28;12208;-74
2022/09/12 14:06:17;;;;;;;;;2.00;2.00;;;;;;;;5052284;28;11352;-73
2022/09/12 14:08:45;;;;;;;;;2.75;2.75;;;;;;;;5038863;28;8825;-73
2022/09/12 14:11:15;;;;;;;;;6.25;5.00;;;;;;;;5058168;28;9011;-73
2022/09/12 14:13:40;;;;;;;;;3.00;3.00;;;;;;;;5058234;28;11757;-73
2022/09/12 14:16:08;;;;;;;;;3.33;3.33;;;;;;;;5038939;28;10708;-73
2022/09/12 14:18:36;;;;;;;;;1.00;1.00;;;;;;;;5037448;28;8930;-73
2022/09/12 14:21:19;;;;;;;;;2.25;2.25;;;;;;;;5057695;28;11670;-73
2022/09/12 14:23:46;;;;;;;;;4.00;4.00;;;;;;;;5057865;28;12786;-72
2022/09/12 14:26:12;;;;;;;;;4.00;4.00;;;;;;;;5057887;28;11912;-73
2022/09/12 14:28:41;;;;;;;;;5.67;3.67;;;;;;;;5057152;28;8940;-73
2022/09/12 14:31:21;;;;;;;;;0.00;0.00;;;;;;;;5057469;28;11685;-72
2022/09/12 14:33:47;;;;;;;;;1.75;1.75;;;;;;;;5055982;28;11372;-73
2022/09/12 14:36:15;;;;;;;;;2.00;2.00;;;;;;;;5036344;28;12820;-72
2022/09/12 14:38:42;;;;;;;;;3.00;2.75;;;;;;;;5057433;28;11496;-73
2022/09/12 14:41:09;;;;;;;;;3.25;3.25;;;;;;;;5057030;28;11624;-73
2022/09/12 14:43:36;;;;;;;;;2.00;2.00;;;;;;;;5057713;28;11341;-73
2022/09/12 14:46:06;;;;;;;;;1.75;1.75;;;;;;;;5060301;28;11563;-73
2022/09/12 14:48:35;;;;;;;;;4.00;2.25;;;;;;;;5042431;28;13503;-74
2022/09/12 14:51:00;;;;;;;;;3.00;3.00;;;;;;;;5060818;28;12322;-72
2022/09/12 14:53:48;;;;;;;;;3.67;3.00;;;;;;;;5059284;28;11283;-73
2022/09/12 14:56:13;;;;;;;;;3.25;2.50;;;;;;;;5048126;28;9837;-73
2022/09/12 14:58:40;;;;;;;;;2.00;2.00;;;;;;;;5059374;28;10365;-74
2022/09/12 15:01:05;;;;;;;;;3.00;1.00;;;;;;;;5060113;28;11945;-73
2022/09/12 15:03:50;;;;;;;;;3.00;3.00;;;;;;;;5059842;28;8814;-73
2022/09/12 15:06:18;;;;;;;;;2.00;2.00;;;;;;;;5058632;28;8828;-73